createdAt,value
2023-05-16T00:00:10.609Z,7.07
2023-05-16T00:05:14.744Z,8.98
2023-05-16T00:10:16.429Z,8.60
2023-05-16T00:15:20.307Z,7.72
2023-05-16T00:20:24.798Z,7.70
2023-05-16T00:25:27.053Z,8.98
2023-05-16T00:30:28.898Z,7.70
2023-05-16T00:35:30.713Z,7.72
2023-05-16T00:40:32.617Z,7.38
2023-05-16T00:45:34.241Z,7.65
2023-05-16T00:50:37.224Z,8.20
2023-05-16T00:55:38.906Z,6.97
2023-05-16T01:00:42.943Z,7.30
2023-05-16T01:05:44.695Z,7.55
2023-05-16T01:11:01.368Z,8.10
2023-05-16T01:16:10.107Z,7.07
2023-05-16T01:21:19.734Z,8.55
2023-05-16T01:26:23.030Z,8.93
2023-05-16T01:31:24.769Z,8.77
2023-05-16T01:36:33.583Z,8.55
2023-05-16T01:41:57.945Z,9.93
2023-05-16T01:47:02.440Z,8.88
2023-05-16T01:52:28.379Z,8.10
2023-05-16T01:57:30.776Z,8.55
2023-05-16T02:02:32.415Z,8.52
2023-05-16T02:07:34.387Z,8.02
2023-05-16T02:12:37.029Z,8.30
2023-05-16T02:17:38.630Z,8.77
2023-05-16T02:22:40.385Z,8.98
2023-05-16T02:27:43.132Z,9.27
2023-05-16T02:32:45.372Z,8.70
2023-05-16T02:37:47.068Z,8.98
2023-05-16T02:42:48.673Z,8.95
2023-05-16T02:47:50.834Z,9.13
2023-05-16T02:52:53.594Z,9.55
2023-05-16T02:57:55.479Z,9.48
2023-05-16T03:02:58.065Z,8.77
2023-05-16T03:07:59.732Z,9.70
2023-05-16T03:13:01.380Z,9.23
2023-05-16T03:18:03.073Z,9.80
2023-05-16T03:23:08.160Z,9.57
2023-05-16T03:28:12.303Z,10.35
2023-05-16T03:33:14.928Z,11.63
2023-05-16T03:38:17.146Z,10.07
2023-05-16T03:43:18.790Z,9.80
2023-05-16T03:48:20.527Z,10.32
2023-05-16T03:53:22.146Z,10.27
2023-05-16T03:58:23.777Z,10.23
2023-05-16T04:03:28.753Z,10.65
2023-05-16T04:08:31.692Z,10.40
2023-05-16T04:13:33.311Z,10.13
2023-05-16T04:18:35.255Z,10.75
2023-05-16T04:23:36.864Z,9.63
2023-05-16T04:28:38.484Z,10.48
2023-05-16T04:33:40.350Z,10.52
2023-05-16T04:38:41.950Z,10.60
2023-05-16T04:43:44.382Z,10.85
2023-05-16T04:48:45.985Z,12.45
2023-05-16T04:53:47.863Z,10.82
2023-05-16T04:58:49.441Z,10.23
2023-05-16T05:03:51.015Z,14.35
2023-05-16T05:08:54.625Z,13.55
2023-05-16T05:13:56.650Z,13.18
2023-05-16T05:18:58.496Z,12.07
2023-05-16T05:24:00.303Z,12.02
2023-05-16T05:29:05.825Z,13.57
2023-05-16T05:34:07.958Z,13.45
2023-05-16T05:39:09.589Z,13.60
2023-05-16T05:44:11.214Z,13.70
2023-05-16T05:49:13.092Z,14.43
2023-05-16T05:54:14.949Z,18.67
2023-05-16T05:59:16.883Z,14.65
2023-05-16T06:04:19.601Z,14.63
2023-05-16T06:09:21.845Z,18.70
2023-05-16T06:14:23.418Z,14.73
2023-05-16T06:19:25.297Z,15.10
2023-05-16T06:24:26.973Z,16.33
2023-05-16T06:29:28.580Z,20.02
2023-05-16T06:34:30.997Z,21.08
2023-05-16T06:39:32.703Z,20.55
2023-05-16T06:44:34.473Z,23.58
2023-05-16T06:49:36.190Z,23.80
2023-05-16T06:54:38.135Z,26.30
2023-05-16T06:59:39.950Z,24.75
2023-05-16T07:04:41.766Z,21.27
2023-05-16T07:09:46.385Z,19.48
2023-05-16T07:14:48.014Z,16.60
2023-05-16T07:19:50.516Z,16.15
2023-05-16T07:24:54.309Z,14.82
2023-05-16T07:29:55.966Z,14.30
2023-05-16T07:34:57.669Z,13.40
2023-05-16T07:39:59.319Z,12.90
2023-05-16T07:45:02.136Z,13.00
2023-05-16T07:50:03.989Z,12.73
2023-05-16T07:55:06.177Z,14.32
2023-05-16T08:00:08.449Z,10.50
2023-05-16T08:05:16.352Z,10.15
2023-05-16T08:10:18.054Z,10.93
2023-05-16T08:15:19.786Z,12.10
2023-05-16T08:20:21.440Z,11.90
2023-05-16T08:25:23.278Z,10.40
2023-05-16T08:30:26.302Z,10.43
2023-05-16T08:35:28.242Z,9.98
2023-05-16T08:40:30.515Z,9.52
2023-05-16T08:45:32.151Z,11.52
2023-05-16T08:50:35.100Z,9.27
2023-05-16T08:55:37.080Z,11.35
2023-05-16T09:00:39.733Z,9.80
2023-05-16T09:05:41.467Z,8.60
2023-05-16T09:10:43.107Z,8.05
2023-05-16T09:15:45.589Z,8.15
2023-05-16T09:20:50.015Z,10.25
2023-05-16T09:25:53.467Z,9.15
2023-05-16T09:30:55.750Z,8.75
2023-05-16T09:36:01.162Z,8.70
2023-05-16T09:41:02.813Z,8.02
2023-05-16T09:46:04.577Z,8.32
2023-05-16T09:51:06.284Z,9.85
2023-05-16T09:56:11.301Z,11.50
2023-05-16T10:01:13.092Z,7.97
2023-05-16T10:06:14.788Z,8.05
2023-05-16T10:11:16.855Z,13.60
2023-05-16T10:16:18.965Z,8.93
2023-05-16T10:21:22.369Z,9.68
2023-05-16T10:26:24.473Z,7.43
2023-05-16T10:31:26.293Z,10.80
2023-05-16T10:36:28.063Z,9.20
2023-05-16T10:41:30.011Z,7.53
2023-05-16T10:46:31.889Z,7.20
2023-05-16T10:51:36.809Z,7.15
2023-05-16T10:56:38.538Z,6.43
2023-05-16T11:01:40.867Z,7.43
2023-05-16T11:06:42.427Z,6.07
2023-05-16T11:11:47.293Z,5.80
2023-05-16T11:17:23.297Z,5.50
2023-05-16T11:22:28.666Z,7.13
2023-05-16T11:27:37.051Z,6.13
2023-05-16T11:32:40.192Z,6.57
2023-05-16T11:37:42.697Z,4.70
2023-05-16T11:42:46.240Z,6.82
2023-05-16T11:47:48.951Z,4.82
2023-05-16T11:52:57.432Z,5.75
2023-05-16T11:57:59.365Z,5.18
2023-05-16T12:03:05.036Z,5.85
2023-05-16T12:08:10.935Z,5.18
2023-05-16T12:13:12.682Z,7.00
2023-05-16T12:18:15.763Z,6.85
2023-05-16T12:23:17.467Z,4.93
2023-05-16T12:28:19.149Z,5.07
2023-05-16T12:33:21.817Z,4.72
2023-05-16T12:38:26.452Z,5.95
2023-05-16T12:43:28.558Z,7.63
2023-05-16T12:48:34.188Z,4.10
2023-05-16T12:53:42.019Z,5.90
2023-05-16T12:58:43.672Z,5.38
2023-05-16T13:03:45.431Z,4.28
2023-05-16T13:08:47.220Z,3.75
2023-05-16T13:13:49.149Z,4.35
2023-05-16T13:18:51.078Z,3.70
2023-05-16T13:23:52.714Z,4.35
2023-05-16T13:28:55.148Z,5.15
2023-05-16T13:33:56.776Z,3.97
2023-05-16T13:38:58.404Z,4.53
2023-05-16T13:44:00.058Z,4.72
2023-05-16T13:49:02.063Z,4.28
2023-05-16T13:54:03.791Z,3.75
2023-05-16T13:59:07.138Z,4.68
2023-05-16T14:04:09.133Z,5.70
2023-05-16T14:09:10.953Z,5.68
2023-05-16T14:14:12.641Z,3.38
2023-05-16T14:19:16.571Z,3.58
2023-05-16T14:24:19.848Z,4.93
2023-05-16T14:29:21.932Z,4.15
2023-05-16T14:34:23.632Z,5.63
2023-05-16T14:39:27.121Z,4.82
2023-05-16T14:44:28.840Z,5.38
2023-05-16T14:49:30.641Z,4.88
2023-05-16T14:54:32.390Z,7.05
2023-05-16T14:59:34.014Z,5.65
2023-05-16T15:04:35.940Z,6.30
2023-05-16T15:09:37.624Z,7.60
2023-05-16T15:14:39.322Z,6.85
2023-05-16T15:19:41.028Z,7.70
2023-05-16T15:24:42.751Z,5.07
2023-05-16T15:29:44.405Z,5.85
2023-05-16T15:34:46.097Z,7.72
2023-05-16T15:39:48.045Z,6.35
2023-05-16T15:44:49.642Z,4.75
2023-05-16T15:49:52.400Z,3.67
2023-05-16T15:54:54.002Z,5.80
2023-05-16T15:59:55.856Z,6.75
2023-05-16T16:04:57.483Z,4.53
2023-05-16T16:09:59.618Z,5.57
2023-05-16T16:15:02.417Z,6.75
2023-05-16T16:20:04.426Z,10.07
2023-05-16T16:25:06.737Z,5.70
2023-05-16T16:30:12.082Z,6.63
2023-05-16T16:35:13.681Z,5.10
2023-05-16T16:40:15.708Z,4.55
2023-05-16T16:45:17.374Z,4.15
2023-05-16T16:50:19.131Z,6.07
2023-05-16T16:55:20.939Z,7.25
2023-05-16T17:00:22.740Z,6.63
2023-05-16T17:05:24.420Z,5.38
2023-05-16T17:10:26.174Z,4.28
2023-05-16T17:15:28.009Z,5.43
2023-05-16T17:20:30.070Z,3.42
2023-05-16T17:25:31.853Z,6.43
2023-05-16T17:30:33.588Z,4.97
2023-05-16T17:35:35.907Z,7.30
2023-05-16T17:40:37.579Z,4.88
2023-05-16T17:45:39.639Z,6.43
2023-05-16T17:50:43.302Z,6.50
2023-05-16T17:55:45.221Z,7.88
2023-05-16T18:00:46.925Z,6.35
2023-05-16T18:05:49.753Z,6.13
2023-05-16T18:10:52.629Z,6.57
2023-05-16T18:15:54.435Z,7.53
2023-05-16T18:20:56.068Z,5.03
2023-05-16T18:25:57.789Z,6.03
2023-05-16T18:30:59.431Z,4.47
2023-05-16T18:36:01.145Z,5.85
2023-05-16T18:41:02.874Z,4.25
2023-05-16T18:46:04.583Z,7.07
2023-05-16T18:51:06.243Z,5.78
2023-05-16T18:56:07.875Z,6.88
2023-05-16T19:01:09.665Z,6.53
2023-05-16T19:06:11.460Z,9.57
2023-05-16T19:11:13.168Z,7.35
2023-05-16T19:16:15.072Z,5.47
2023-05-16T19:21:16.757Z,7.25
2023-05-16T19:26:18.643Z,4.90
2023-05-16T19:31:20.316Z,11.57
2023-05-16T19:36:22.516Z,6.20
2023-05-16T19:41:24.675Z,5.95
2023-05-16T19:46:26.331Z,6.65
2023-05-16T19:51:40.826Z,9.55
2023-05-16T19:56:43.748Z,8.45
2023-05-16T20:01:45.781Z,7.03
2023-05-16T20:06:47.463Z,7.65
2023-05-16T20:11:49.680Z,7.97
2023-05-16T20:16:51.923Z,5.68
2023-05-16T20:21:53.567Z,5.22
2023-05-16T20:26:55.335Z,5.30
2023-05-16T20:31:56.986Z,4.50
2023-05-16T20:36:58.724Z,8.25
2023-05-16T20:42:00.759Z,2.53
2023-05-16T20:47:02.454Z,7.38
2023-05-16T20:52:04.577Z,5.22
2023-05-16T20:57:07.244Z,4.20
2023-05-16T21:02:11.545Z,4.45
2023-05-16T21:07:13.362Z,3.67
2023-05-16T21:12:15.059Z,4.47
2023-05-16T21:17:16.717Z,4.18
2023-05-16T21:22:18.361Z,5.25
2023-05-16T21:27:20.029Z,4.32
2023-05-16T21:32:21.737Z,4.28
2023-05-16T21:37:23.431Z,9.23
2023-05-16T21:42:25.341Z,3.00
2023-05-16T21:47:27.000Z,2.78
2023-05-16T21:52:28.738Z,4.90
2023-05-16T21:57:30.605Z,4.88
2023-05-16T22:02:33.351Z,8.60
2023-05-16T22:07:35.940Z,7.00
2023-05-16T22:12:37.973Z,3.45
2023-05-16T22:17:41.622Z,4.85
2023-05-16T22:22:44.654Z,3.38
2023-05-16T22:27:46.297Z,5.00
2023-05-16T22:32:48.012Z,4.03
2023-05-16T22:37:49.681Z,3.92
2023-05-16T22:42:51.273Z,4.15
2023-05-16T22:47:52.970Z,3.97
2023-05-16T22:52:54.628Z,4.10
2023-05-16T22:57:58.371Z,3.00
2023-05-16T23:03:00.108Z,2.72
2023-05-16T23:08:03.196Z,4.35
2023-05-16T23:13:04.989Z,4.00
2023-05-16T23:18:06.729Z,3.95
2023-05-16T23:23:08.440Z,2.28
2023-05-16T23:28:10.103Z,3.78
2023-05-16T23:33:12.888Z,3.40
2023-05-16T23:38:14.638Z,3.00
2023-05-16T23:43:16.370Z,3.15
2023-05-16T23:48:18.055Z,4.10
2023-05-16T23:53:19.904Z,2.92
2023-05-16T23:58:21.593Z,3.83
